Map

Track Data

SID SEASON NUMBER BASIN SUBBASIN NAME ISO_TIME NATURE LAT LON WMO_WIND WMO_PRES WMO_AGENCY TRACK_TYPE DIST2LAND LANDFALL IFLAG USA_AGENCY USA_ATCF_ID USA_LAT USA_LON USA_RECORD USA_STATUS USA_WIND USA_PRES USA_SSHS USA_R34_NE USA_R34_SE USA_R34_SW USA_R34_NW USA_R50_NE USA_R50_SE USA_R50_SW USA_R50_NW USA_R64_NE USA_R64_SE USA_R64_SW USA_R64_NW USA_POCI USA_ROCI USA_RMW USA_EYE TOKYO_LAT TOKYO_LON TOKYO_GRADE TOKYO_WIND TOKYO_PRES TOKYO_R50_DIR TOKYO_R50_LONG TOKYO_R50_SHORT TOKYO_R30_DIR TOKYO_R30_LONG TOKYO_R30_SHORT TOKYO_LAND CMA_LAT CMA_LON CMA_CAT CMA_WIND CMA_PRES HKO_LAT HKO_LON HKO_CAT HKO_WIND HKO_PRES NEWDELHI_LAT NEWDELHI_LON NEWDELHI_GRADE NEWDELHI_WIND NEWDELHI_PRES NEWDELHI_CI NEWDELHI_DP NEWDELHI_POCI REUNION_LAT REUNION_LON REUNION_TYPE REUNION_WIND REUNION_PRES REUNION_TNUM REUNION_CI REUNION_RMW REUNION_R34_NE REUNION_R34_SE REUNION_R34_SW REUNION_R34_NW REUNION_R50_NE REUNION_R50_SE REUNION_R50_SW REUNION_R50_NW REUNION_R64_NE REUNION_R64_SE REUNION_R64_SW REUNION_R64_NW BOM_LAT BOM_LON BOM_TYPE BOM_WIND BOM_PRES BOM_TNUM BOM_CI BOM_RMW BOM_R34_NE BOM_R34_SE BOM_R34_SW BOM_R34_NW BOM_R50_NE BOM_R50_SE BOM_R50_SW BOM_R50_NW BOM_R64_NE BOM_R64_SE BOM_R64_SW BOM_R64_NW BOM_ROCI BOM_POCI BOM_EYE BOM_POS_METHOD BOM_PRES_METHOD NADI_LAT NADI_LON NADI_CAT NADI_WIND NADI_PRES WELLINGTON_LAT WELLINGTON_LON WELLINGTON_WIND WELLINGTON_PRES DS824_LAT DS824_LON DS824_STAGE DS824_WIND DS824_PRES TD9636_LAT TD9636_LON TD9636_STAGE TD9636_WIND TD9636_PRES TD9635_LAT TD9635_LON TD9635_WIND TD9635_PRES TD9635_ROCI NEUMANN_LAT NEUMANN_LON NEUMANN_CLASS NEUMANN_WIND NEUMANN_PRES MLC_LAT MLC_LON MLC_CLASS MLC_WIND MLC_PRES USA_GUST BOM_GUST BOM_GUST_PER REUNION_GUST REUNION_GUST_PER USA_SEAHGT USA_SEARAD_NE USA_SEARAD_SE USA_SEARAD_SW USA_SEARAD_NW STORM_SPEED STORM_DIR
1919305N10084 1919 46 NI BB NOT_NAMED 1919-11-01 00:00:00 TS 10.2000 83.6000 main 312 290 _________O____ -1 10.2000 83.6000 TC 30 9 294
1919305N10084 1919 46 NI BB NOT_NAMED 1919-11-01 03:00:00 TS 10.3718 83.2051 main 290 254 _________PO___ -1 10.4577 83.0077 TC 30 10.2000 83.6000 1 10 293
1919305N10084 1919 46 NI BB NOT_NAMED 1919-11-01 06:00:00 TS 10.5971 82.6396 main 245 219 _________OP___ -1 10.7000 82.4000 TC 30 10.4426 82.9989 1 12 291
1919305N10084 1919 46 NI BB NOT_NAMED 1919-11-01 09:00:00 TS 10.8133 82.0319 main 213 174 _________PP___ -1 10.9149 81.7649 TC 30 10.6778 82.3879 1 13 289
1919305N10084 1919 46 NI BB NOT_NAMED 1919-11-01 12:00:00 TS 10.9995 81.4290 main 163 98 _________OP___ -1 11.1000 81.1000 TC 30 10.8991 81.7579 1 13 286
1919305N10084 1919 46 NI BB NOT_NAMED 1919-11-01 15:00:00 TS 11.1826 80.7350 main 87 24 _________PO___ -1 11.2651 80.3700 TC 30 11.1000 81.1000 1 14 284
1919305N10084 1919 46 NI BB NOT_NAMED 1919-11-01 18:00:00 TS 11.3372 80.0586 main 24 0 _________OP___ -1 11.4000 79.7000 TC 30 11.2745 80.4173 1 13 283
1919305N10084 1919 46 NI BB NOT_NAMED 1919-11-01 21:00:00 TS 11.4703 79.4538 main 0 0 _________PP___ -1 11.5224 79.1450 TC 30 11.4181 79.7627 1 11 282
1919305N10084 1919 46 NI BB NOT_NAMED 1919-11-02 00:00:00 TS 11.5638 79.0008 main 0 0 _________OP___ -1 11.6000 78.8000 TC 30 11.5276 79.2017 1 7 282
1919305N10084 1919 46 NI BB NOT_NAMED 1919-11-02 03:00:00 TS 11.6074 78.7662 main 0 0 _________PO___ -1 11.6149 78.7325 TC 30 11.6000 78.8000 1 3 281
1919305N10084 1919 46 NI BB NOT_NAMED 1919-11-02 06:00:00 TS 11.6176 78.7172 main 0 0 _________OP___ -1 11.6000 78.8000 TC 30 11.6352 78.6344 1 1 281
1919305N10084 1919 46 NI BB NOT_NAMED 1919-11-02 09:00:00 TS 11.6184 78.7136 main 0 0 _________PP___ -1 11.6000 78.8000 TC 30 11.6368 78.6272 1 0 101
1919305N10084 1919 46 NI BB NOT_NAMED 1919-11-02 12:00:00 TS 11.6100 78.7532 main 0 0 _________OP___ -1 11.6000 78.8000 TC 30 11.6199 78.7064 1 1 102
1919305N10084 1919 46 NI BB NOT_NAMED 1919-11-02 15:00:00 TS 11.6000 78.8000 main 0 0 _________PO___ -1 11.6000 78.8000 TC 30 11.6000 78.8000 1 0 105
1919305N10084 1919 46 NI BB NOT_NAMED 1919-11-02 18:00:00 TS 11.6000 78.8000 main 0 0 _________OP___ -1 11.6000 78.8000 TC 30 11.6000 78.8000 1 0 0
1919305N10084 1919 46 NI BB NOT_NAMED 1919-11-02 21:00:00 TS 11.6000 78.8000 main 0 0 _________PP___ -1 11.6000 78.8000 TC 30 11.6000 78.8000 1 0 0
1919305N10084 1919 46 NI BB NOT_NAMED 1919-11-03 00:00:00 TS 11.6000 78.8000 main 0 0 _________OP___ -1 11.6000 78.8000 TC 30 11.6000 78.8000 1 0 0
1919305N10084 1919 46 NI BB NOT_NAMED 1919-11-03 03:00:00 TS 11.6000 78.8000 main 0 0 _________PO___ -1 11.6000 78.8000 TC 30 11.6000 78.8000 1 0 0
1919305N10084 1919 46 NI BB NOT_NAMED 1919-11-03 06:00:00 TS 11.6000 78.8000 main 0 0 _________OP___ -1 11.6000 78.8000 TC 30 11.6000 78.8000 1 0 0
1919305N10084 1919 46 NI BB NOT_NAMED 1919-11-03 09:00:00 TS 11.6000 78.8000 main 0 0 _________PP___ -1 11.6000 78.8000 TC 30 11.6000 78.8000 1 0 0
1919305N10084 1919 46 NI BB NOT_NAMED 1919-11-03 12:00:00 TS 11.6000 78.8000 main 0 0 _________OP___ -1 11.6000 78.8000 TC 30 11.6000 78.8000 1 0 0
1919305N10084 1919 46 NI BB NOT_NAMED 1919-11-03 15:00:00 TS 11.6000 78.8000 main 0 0 _________PO___ -1 11.6000 78.8000 TC 30 11.6000 78.8000 1 0 0
1919305N10084 1919 46 NI BB NOT_NAMED 1919-11-03 18:00:00 TS 11.6000 78.8000 main 0 0 _________OP___ -1 11.6000 78.8000 TC 30 11.6000 78.8000 1 0 0
1919305N10084 1919 46 NI BB NOT_NAMED 1919-11-03 21:00:00 TS 11.6000 78.8000 main 0 0 _________PP___ -1 11.6000 78.8000 TC 30 11.6000 78.8000 1 0 0
1919305N10084 1919 46 NI BB NOT_NAMED 1919-11-04 00:00:00 TS 11.6000 78.8000 main 0 0 _________OP___ -1 11.6000 78.8000 TC 30 11.6000 78.8000 1 0 0
1919305N10084 1919 46 NI BB NOT_NAMED 1919-11-04 03:00:00 TS 11.6000 78.8000 main 0 0 _________PO___ -1 11.6000 78.8000 TC 30 11.6000 78.8000 1 0 0
1919305N10084 1919 46 NI BB NOT_NAMED 1919-11-04 06:00:00 TS 11.6000 78.8000 main 0 0 _________OP___ -1 11.6000 78.8000 TC 30 11.6000 78.8000 1 0 0
1919305N10084 1919 46 NI BB NOT_NAMED 1919-11-04 09:00:00 TS 11.6000 78.8000 main 0 0 _________PP___ -1 11.6000 78.8000 TC 30 11.6000 78.8000 1 0 0
1919305N10084 1919 46 NI BB NOT_NAMED 1919-11-04 12:00:00 TS 11.6000 78.8000 main 0 0 _________OP___ -1 11.6000 78.8000 TC 30 11.6000 78.8000 1 0 0
1919305N10084 1919 46 NI BB NOT_NAMED 1919-11-04 15:00:00 TS 11.6000 78.8000 main 0 0 _________PO___ -1 11.6000 78.8000 TC 30 11.6000 78.8000 1 2 93
1919305N10084 1919 46 NI BB NOT_NAMED 1919-11-04 18:00:00 TS 11.5916 78.9617 main 0 0 _________OP___ -1 11.6000 78.8000 TC 30 11.5832 79.1235 1 4 93
1919305N10084 1919 46 NI BB NOT_NAMED 1919-11-04 21:00:00 TS 11.5800 79.2108 main 0 0 _________PP___ -1 11.5913 79.0248 TC 30 11.5687 79.3969 1 1 93
1919305N10084 1919 46 NI BB NOT_NAMED 1919-11-05 00:00:00 TS 11.5850 79.0860 main 0 0 _________OP___ -1 11.6000 78.8000 TC 30 11.5700 79.3721 1 10 272
1919305N10084 1919 46 NI BB NOT_NAMED 1919-11-05 03:00:00 TS 11.6167 78.2369 main 0 0 _________PO___ -1 11.6335 77.6738 TC 30 11.6000 78.8000 1 25 272
1919305N10084 1919 46 NI AS NOT_NAMED 1919-11-05 06:00:00 TS 11.6501 76.5808 main 0 0 _________OP___ -1 11.7000 75.8000 TC 30 11.6002 77.3615 1 38 271
1919305N10084 1919 46 NI AS NOT_NAMED 1919-11-05 09:00:00 TS 11.6923 74.3707 main 93 93 _________PP___ -1 11.7582 73.3665 TC 30 11.6263 75.3749 1 45 272
1919305N10084 1919 46 NI AS NOT_NAMED 1919-11-05 12:00:00 TS 11.8063 71.9508 main 324 324 _________OP___ -1 11.9000 70.8000 TC 30 11.7126 73.1016 1 45 274
1919305N10084 1919 46 NI AS NOT_NAMED 1919-11-05 15:00:00 TS 12.0396 69.7837 main 550 550 _________PO___ -1 12.1793 68.7674 TC 38 11.9000 70.8000 1 42 279
1919305N10084 1919 46 NI AS NOT_NAMED 1919-11-05 18:00:00 TS 12.4563 67.7359 main 730 730 _________OP___ -1 12.6000 66.9000 TC 47 12.3126 68.5718 1 43 283
1919305N10084 1919 46 NI AS NOT_NAMED 1919-11-05 21:00:00 TS 13.0070 65.5444 main 925 888 _________PP___ -1 13.1975 64.6980 TC 55 12.8166 66.3907 1 40 285
1919305N10084 1919 46 NI AS NOT_NAMED 1919-11-06 00:00:00 TS 13.5055 63.7314 main 880 789 _________OP___ -1 13.7000 63.0000 TC 64 13.3109 64.4627 1 28 285
1919305N10084 1919 46 NI AS NOT_NAMED 1919-11-06 03:00:00 TS 13.7611 62.7469 main 782 761 _________PO___ -1 13.8223 62.4938 TC 64 13.7000 63.0000 4 14 284
1919305N10084 1919 46 NI AS NOT_NAMED 1919-11-06 06:00:00 TS 13.8255 62.3816 main 761 732 _________OP___ -1 13.8000 62.5000 TC 64 13.8510 62.2631 4 6 280
1919305N10084 1919 46 NI AS NOT_NAMED 1919-11-06 09:00:00 TS 13.8720 62.1263 main 732 725 _________PP___ -1 13.8425 62.2575 TC 64 13.9016 61.9952 4 4 281
1919305N10084 1919 46 NI AS NOT_NAMED 1919-11-06 12:00:00 TS 13.9009 61.9898 main 725 718 _________OP___ -1 13.9000 62.0000 TC 64 13.9017 61.9796 4 3 286
1919305N10084 1919 46 NI AS NOT_NAMED 1919-11-06 15:00:00 TS 13.9500 61.8500 main 710 690 _________PO___ -1 14.0000 61.7000 TC 64 13.9000 62.0000 4 4 288
1919305N10084 1919 46 NI AS NOT_NAMED 1919-11-06 18:00:00 TS 14.0318 61.5742 main 690 663 _________OP___ -1 14.1000 61.4000 TC 64 13.9636 61.7483 4 5 286
1919305N10084 1919 46 NI AS NOT_NAMED 1919-11-06 21:00:00 TS 14.0923 61.3261 main 663 642 _________PP___ -1 14.1499 61.1649 TC 64 14.0347 61.4873 4 5 284
1919305N10084 1919 46 NI AS NOT_NAMED 1919-11-07 00:00:00 TS 14.1567 61.0538 main 642 618 _________OP___ -1 14.2000 60.9000 TC 64 14.1135 61.2077 4 6 284
1919305N10084 1919 46 NI AS NOT_NAMED 1919-11-07 03:00:00 TS 14.2463 60.7075 main 618 579 _________PO___ -1 14.2926 60.5150 TC 64 14.2000 60.9000 4 7 285
1919305N10084 1919 46 NI AS NOT_NAMED 1919-11-07 06:00:00 TS 14.3444 60.3289 main 579 548 _________OP___ -1 14.4000 60.1000 TC 64 14.2887 60.5577 4 7 285
1919305N10084 1919 46 NI AS NOT_NAMED 1919-11-07 09:00:00 TS 14.4424 59.9687 main 548 511 _________PP___ -1 14.4999 59.7500 TC 64 14.3849 60.1874 4 7 286
1919305N10084 1919 46 NI AS NOT_NAMED 1919-11-07 12:00:00 TS 14.5443 59.5992 main 511 475 _________OP___ -1 14.6000 59.4000 TC 64 14.4887 59.7983 4 8 285
1919305N10084 1919 46 NI AS NOT_NAMED 1919-11-07 15:00:00 TS 14.6462 59.2037 main 475 440 _________PO___ -1 14.6925 59.0074 TC 56 14.6000 59.4000 4 8 286
1919305N10084 1919 46 NI AS NOT_NAMED 1919-11-07 18:00:00 TS 14.7535 58.8287 main 431 403 _________OP___ -1 14.8000 58.6000 TC 49 14.7187 59.0002 4 8 288
1919305N10084 1919 46 NI AS NOT_NAMED 1919-11-07 21:00:00 TS 14.8818 58.4393 main 397 371 _________PP___ -1 14.9401 58.1976 TC 41 14.8430 58.6004 4 8 289
1919305N10084 1919 46 NI AS NOT_NAMED 1919-11-08 00:00:00 TS 15.0139 58.0669 main 371 347 _________OP___ -1 15.1000 57.8000 TC 34 14.9708 58.2004 4 7 289
1919305N10084 1919 46 NI AS NOT_NAMED 1919-11-08 03:00:00 NR 15.1000 57.8000 main 347 __________O___ -1 TC 15.1000 57.8000 2 5 289

About IBTrACS Database

This database is a web-friendly format of International Best Track Archive for Climate Stewardship (IBTrACS), a global best track data archive curated by NOAA dating back to 1842.

Updated: 2021-10-27